Time;durP1;ratioP1;P1;durP2;ratioP2;P2;SDS_P1;SDS_P2;PMS_P1;PMS_P2;Temp;Humidity;BMP_temperature;BMP_pressure;BME280_temperature;BME280_humidity;BME280_pressure;Samples;Min_cycle;Max_cycle;Signal;HPM_P1;HPM_P2
2021/05/08 00:00:06;;;;;;;;;2.00;1.00;;;;;15.77;46.81;98457.97;4790845;29;102615;-79
2021/05/08 00:02:33;;;;;;;;;1.75;1.75;;;;;15.75;46.96;98460.97;4783141;29;102594;-79
2021/05/08 00:05:00;;;;;;;;;2.00;2.00;;;;;15.74;46.92;98459.31;4776198;29;103114;-79
2021/05/08 00:07:26;;;;;;;;;1.75;1.75;;;;;15.74;46.84;98453.84;4769872;29;104299;-79
2021/05/08 00:09:54;;;;;;;;;2.50;1.75;;;;;15.74;47.23;98459.31;4764975;29;102460;-79
2021/05/08 00:12:20;;;;;;;;;3.00;2.00;;;;;15.73;47.06;98470.44;4738456;29;105533;-78
2021/05/08 00:14:47;;;;;;;;;2.75;2.00;;;;;15.74;46.69;98472.94;4792622;29;102215;-79
2021/05/08 00:17:14;;;;;;;;;4.00;2.00;;;;;15.73;46.61;98470.44;4781049;29;104482;-78
2021/05/08 00:19:42;;;;;;;;;2.00;2.00;;;;;15.74;46.73;98472.94;4780261;29;102453;-79
2021/05/08 00:22:11;;;;;;;;;2.00;2.00;;;;;15.72;46.80;98479.66;4786921;29;102264;-78
2021/05/08 00:24:40;;;;;;;;;1.25;1.25;;;;;15.70;46.71;98474.47;4788047;29;102937;-79
2021/05/08 00:27:09;;;;;;;;;2.00;1.25;;;;;15.72;46.75;98483.22;4789082;29;103401;-79
2021/05/08 00:29:38;;;;;;;;;1.25;1.25;;;;;15.72;46.60;98482.41;4789054;29;102448;-79
2021/05/08 00:32:07;;;;;;;;;2.25;2.25;;;;;15.69;46.61;98483.72;4794373;29;102619;-79
2021/05/08 00:34:36;;;;;;;;;2.00;1.75;;;;;15.67;46.73;98491.28;4797070;29;106216;-79
2021/05/08 00:37:06;;;;;;;;;1.50;1.50;;;;;15.69;46.99;98499.22;4785965;29;108173;-79
2021/05/08 00:39:34;;;;;;;;;1.25;1.25;;;;;15.68;46.78;98498.41;4786330;29;103730;-79
2021/05/08 00:42:03;;;;;;;;;2.00;1.25;;;;;15.69;46.67;98504.69;4796002;29;102342;-79
2021/05/08 00:44:31;;;;;;;;;2.00;1.00;;;;;15.69;46.68;98502.78;4790789;29;102254;-79
2021/05/08 00:47:00;;;;;;;;;2.00;2.00;;;;;15.68;46.57;98503.84;4791524;29;103108;-79
2021/05/08 00:49:29;;;;;;;;;1.00;1.00;;;;;15.67;46.79;98490.47;4774217;29;103300;-79
2021/05/08 00:52:03;;;;;;;;;2.00;2.00;;;;;15.66;46.77;98497.81;4793401;29;102487;-79
2021/05/08 00:54:33;;;;;;;;;1.25;1.00;;;;;15.68;46.81;98503.03;4787340;29;103731;-79
2021/05/08 00:57:02;;;;;;;;;0.50;0.50;;;;;15.66;46.74;98506.00;4792948;29;108873;-79
2021/05/08 00:59:31;;;;;;;;;2.00;2.00;;;;;15.67;46.66;98504.09;4789767;29;104769;-79
2021/05/08 01:02:05;;;;;;;;;2.00;1.75;;;;;15.66;46.54;98510.63;4767733;29;102501;-79
2021/05/08 01:04:33;;;;;;;;;1.00;1.00;;;;;15.65;46.64;98509.78;4768466;29;102746;-79
2021/05/08 01:07:03;;;;;;;;;1.00;1.00;;;;;15.62;46.81;98500.16;4770579;29;104902;-79
2021/05/08 01:09:31;;;;;;;;;2.00;2.00;;;;;15.64;46.71;98502.66;4771513;29;102507;-79
2021/05/08 01:11:58;;;;;;;;;2.00;2.00;;;;;15.63;46.40;98506.44;4774263;29;102145;-79
2021/05/08 01:14:25;;;;;;;;;2.00;1.50;;;;;15.63;46.51;98509.19;4783957;29;102245;-79
2021/05/08 01:16:51;;;;;;;;;1.50;1.50;;;;;15.62;46.74;98510.25;4759059;29;103589;-79
2021/05/08 01:19:18;;;;;;;;;3.25;2.25;;;;;15.62;46.39;98521.97;4775057;29;110972;-79
2021/05/08 01:21:45;;;;;;;;;1.75;1.75;;;;;15.62;46.68;98523.91;4750622;29;104189;-79
2021/05/08 01:24:13;;;;;;;;;2.00;2.00;;;;;15.62;46.50;98515.72;4784822;29;102423;-79
2021/05/08 01:26:41;;;;;;;;;1.25;1.25;;;;;15.63;46.48;98528.25;4785497;29;103090;-79
2021/05/08 01:29:09;;;;;;;;;1.00;1.00;;;;;15.61;46.34;98524.94;4786812;29;105574;-79
2021/05/08 01:31:37;;;;;;;;;1.50;1.00;;;;;15.62;46.66;98523.91;4780015;29;106811;-79
2021/05/08 01:34:06;;;;;;;;;1.00;1.00;;;;;15.60;46.44;98518.66;4791854;29;102314;-79
2021/05/08 01:36:35;;;;;;;;;2.00;2.00;;;;;15.61;46.87;98530.41;4790734;29;103960;-79
2021/05/08 01:39:05;;;;;;;;;3.00;1.00;;;;;15.59;46.29;98527.91;4791064;29;102534;-79
2021/05/08 01:41:33;;;;;;;;;1.00;1.00;;;;;15.58;46.55;98526.22;4788296;29;102835;-79
2021/05/08 01:44:01;;;;;;;;;1.50;1.00;;;;;15.59;46.45;98540.69;4792408;29;103456;-79
2021/05/08 01:46:31;;;;;;;;;1.25;1.25;;;;;15.58;46.25;98539.03;4787064;29;103063;-79
2021/05/08 01:49:01;;;;;;;;;1.00;1.00;;;;;15.56;46.47;98542.00;4786040;29;104447;-79
2021/05/08 01:51:30;;;;;;;;;1.25;1.25;;;;;15.58;46.33;98544.47;4791742;29;102651;-79
2021/05/08 01:53:59;;;;;;;;;1.50;0.75;;;;;15.57;46.80;98540.13;4790453;29;103250;-79
2021/05/08 01:56:28;;;;;;;;;1.00;1.00;;;;;15.59;46.15;98540.69;4786693;29;104182;-79
2021/05/08 01:58:57;;;;;;;;;1.00;1.00;;;;;15.57;46.25;98540.94;4787265;29;103610;-79
2021/05/08 02:01:26;;;;;;;;;2.00;1.00;;;;;15.57;46.63;98545.56;4792507;29;105479;-79
2021/05/08 02:03:54;;;;;;;;;0.00;0.00;;;;;15.57;46.45;98540.13;4786433;29;103398;-79
2021/05/08 02:06:23;;;;;;;;;2.25;1.75;;;;;15.56;46.70;98543.91;4784074;29;103529;-79
2021/05/08 02:08:52;;;;;;;;;2.00;2.00;;;;;15.56;46.27;98539.28;4791692;29;103838;-79
2021/05/08 02:11:21;;;;;;;;;1.00;1.00;;;;;15.57;46.44;98537.38;4792656;29;102389;-79
2021/05/08 02:13:50;;;;;;;;;1.00;1.00;;;;;15.56;46.65;98544.72;4790211;29;102735;-79
2021/05/08 02:16:19;;;;;;;;;2.00;1.00;;;;;15.55;46.40;98553.13;4793182;29;103097;-79
2021/05/08 02:18:48;;;;;;;;;1.00;1.00;;;;;15.54;46.57;98546.00;4791623;29;102469;-79
2021/05/08 02:21:17;;;;;;;;;1.00;1.00;;;;;15.54;46.28;98551.47;4789918;29;104009;-79
2021/05/08 02:23:45;;;;;;;;;1.75;0.00;;;;;15.52;46.27;98553.59;4792473;29;102349;-79
2021/05/08 02:26:13;;;;;;;;;1.00;1.00;;;;;15.54;46.41;98567.81;4789379;29;103119;-79
2021/05/08 02:28:40;;;;;;;;;2.00;1.00;;;;;15.51;46.75;98563.69;4789941;29;103010;-79
2021/05/08 02:31:07;;;;;;;;;0.75;0.75;;;;;15.52;46.52;98568.06;4791339;29;102476;-79
2021/05/08 02:33:33;;;;;;;;;1.00;1.00;;;;;15.55;46.64;98561.31;4794810;29;103891;-79
2021/05/08 02:36:00;;;;;;;;;1.00;1.00;;;;;15.53;46.56;98572.47;4787906;29;104085;-79
2021/05/08 02:38:27;;;;;;;;;0.50;0.50;;;;;15.52;46.42;98570.78;4790859;29;103689;-78
2021/05/08 02:40:53;;;;;;;;;1.00;1.00;;;;;15.48;46.27;98574.19;4791095;29;102145;-79
2021/05/08 02:43:20;;;;;;;;;0.75;0.75;;;;;15.51;46.56;98582.75;4785766;29;102505;-79
2021/05/08 02:45:46;;;;;;;;;1.00;1.00;;;;;15.51;46.32;98590.09;4792208;29;104265;-79
2021/05/08 02:48:13;;;;;;;;;1.00;1.00;;;;;15.50;46.10;98585.66;4790618;29;102253;-79
2021/05/08 02:50:40;;;;;;;;;2.00;2.00;;;;;15.49;46.05;98594.94;4765133;29;103346;-79
2021/05/08 02:53:07;;;;;;;;;1.75;1.00;;;;;15.47;46.23;98591.59;4791167;29;102424;-78
2021/05/08 02:55:33;;;;;;;;;1.00;1.00;;;;;15.47;46.44;98591.59;4791670;29;104192;-79
2021/05/08 02:58:02;;;;;;;;;1.00;1.00;;;;;15.46;46.25;98593.50;4801853;29;103552;-78
2021/05/08 03:00:28;;;;;;;;;1.00;1.00;;;;;15.46;46.52;98598.09;4788074;29;104600;-78
2021/05/08 03:02:55;;;;;;;;;1.00;1.00;;;;;15.46;46.44;98592.66;4797730;29;102242;-79
2021/05/08 03:05:22;;;;;;;;;1.00;0.50;;;;;15.47;46.51;98605.22;4785364;29;104353;-78
2021/05/08 03:07:48;;;;;;;;;1.00;1.00;;;;;15.45;46.46;98608.16;4783516;29;102635;-79
2021/05/08 03:10:15;;;;;;;;;2.00;2.00;;;;;15.45;46.17;98610.06;4794493;29;102307;-78
2021/05/08 03:12:42;;;;;;;;;1.00;1.00;;;;;15.42;46.29;98613.25;4793508;29;104340;-78
2021/05/08 03:15:09;;;;;;;;;1.00;1.00;;;;;15.44;46.07;98613.88;4790952;29;110736;-79
2021/05/08 03:17:36;;;;;;;;;1.00;1.00;;;;;15.43;46.51;98620.38;4786603;29;103764;-79
2021/05/08 03:20:04;;;;;;;;;1.00;0.00;;;;;15.43;46.39;98620.38;4788594;29;102074;-79
2021/05/08 03:22:30;;;;;;;;;0.75;0.75;;;;;15.43;46.57;98628.56;4784220;29;103875;-79
2021/05/08 03:24:58;;;;;;;;;1.50;1.00;;;;;15.43;46.46;98625.81;4785022;29;104096;-79
2021/05/08 03:27:25;;;;;;;;;1.00;0.50;;;;;15.40;45.99;98629.81;4781078;29;103012;-79
2021/05/08 03:29:52;;;;;;;;;0.00;0.00;;;;;15.40;46.29;98643.44;4782616;29;102246;-79
2021/05/08 03:32:18;;;;;;;;;1.00;1.00;;;;;15.42;46.52;98637.78;4791045;29;102174;-79
2021/05/08 03:34:46;;;;;;;;;3.00;1.00;;;;;15.41;46.32;98634.22;4785694;29;104117;-79
2021/05/08 03:37:13;;;;;;;;;1.00;1.00;;;;;15.41;46.34;98644.28;4784047;29;102697;-79
2021/05/08 03:39:39;;;;;;;;;1.00;0.00;;;;;15.40;46.22;98643.44;4793852;29;102606;-79
2021/05/08 03:42:06;;;;;;;;;2.00;2.00;;;;;15.41;46.05;98655.19;4789607;29;103375;-78
2021/05/08 03:44:33;;;;;;;;;1.00;1.00;;;;;15.40;46.11;98653.53;4780511;29;104092;-79
2021/05/08 03:46:59;;;;;;;;;1.25;1.00;;;;;15.39;46.23;98657.31;4783104;29;103254;-79
2021/05/08 03:49:26;;;;;;;;;0.50;0.50;;;;;15.39;46.55;98651.88;4784784;29;102041;-79
2021/05/08 03:51:58;;;;;;;;;2.00;1.00;;;;;15.39;46.26;98660.06;4788325;29;104756;-78
2021/05/08 03:54:25;;;;;;;;;0.00;0.00;;;;;15.39;46.50;98668.22;4782286;29;104266;-79
2021/05/08 03:56:51;;;;;;;;;0.00;0.00;;;;;15.38;46.53;98666.56;4788424;29;102439;-79
2021/05/08 03:59:18;;;;;;;;;3.75;1.75;;;;;15.39;46.23;98668.22;4783694;29;104019;-79
2021/05/08 04:01:45;;;;;;;;;0.50;0.00;;;;;15.39;46.08;98670.94;4784318;29;102297;-79
2021/05/08 04:04:11;;;;;;;;;1.25;0.25;;;;;15.37;45.97;98671.16;4785442;29;105654;-79
2021/05/08 04:06:38;;;;;;;;;1.50;1.00;;;;;15.36;46.00;98665.94;4784265;29;102701;-79
2021/05/08 04:09:05;;;;;;;;;0.75;0.75;;;;;15.38;45.98;98680.19;4786121;29;102538;-79
2021/05/08 04:11:32;;;;;;;;;1.00;1.00;;;;;15.39;46.07;98679.13;4782528;29;102341;-79
2021/05/08 04:13:58;;;;;;;;;0.25;0.25;;;;;15.38;45.96;98680.19;4786686;29;105917;-79
2021/05/08 04:16:25;;;;;;;;;1.00;1.00;;;;;15.39;46.10;98690.03;4795491;29;103759;-79
2021/05/08 04:18:52;;;;;;;;;0.00;0.00;;;;;15.38;45.69;98688.34;4787954;29;102618;-79
2021/05/08 04:21:18;;;;;;;;;1.00;1.00;;;;;15.39;46.00;98690.03;4789798;29;104114;-79
2021/05/08 04:23:45;;;;;;;;;0.50;0.50;;;;;15.38;46.04;98696.53;4784576;29;104054;-79
2021/05/08 04:26:12;;;;;;;;;1.00;0.25;;;;;15.36;46.23;98690.47;4790509;29;103841;-79
2021/05/08 04:28:38;;;;;;;;;1.75;1.75;;;;;15.38;46.13;98702.81;4780822;29;103159;-79
2021/05/08 04:31:05;;;;;;;;;1.00;1.00;;;;;15.38;45.97;98696.53;4786927;29;102946;-79
2021/05/08 04:33:32;;;;;;;;;1.00;1.00;;;;;15.36;45.69;98696.75;4785132;29;104325;-79
2021/05/08 04:35:58;;;;;;;;;1.50;1.00;;;;;15.35;45.56;98700.56;4783627;29;102601;-79
2021/05/08 04:38:25;;;;;;;;;0.00;0.00;;;;;15.37;45.89;98708.47;4776189;29;102484;-79
2021/05/08 04:40:53;;;;;;;;;1.00;1.00;;;;;15.37;45.78;98708.47;4787272;29;102228;-81
2021/05/08 04:43:20;;;;;;;;;1.00;1.00;;;;;15.37;45.79;98709.31;4786059;29;104263;-81
2021/05/08 04:45:47;;;;;;;;;1.00;1.00;;;;;15.38;46.33;98707.44;4779802;29;102256;-81
2021/05/08 04:48:34;;;;;;;;;2.00;1.00;;;;;15.39;45.96;98717.28;4787350;29;102602;-81
2021/05/08 04:51:01;;;;;;;;;1.00;1.00;;;;;15.40;45.84;98721.66;4736262;29;102312;-81
2021/05/08 04:53:27;;;;;;;;;1.00;1.00;;;;;15.39;45.85;98717.28;4788517;29;105774;-81
2021/05/08 04:55:54;;;;;;;;;1.00;1.00;;;;;15.39;45.75;98723.56;4781206;29;104992;-81
2021/05/08 04:58:21;;;;;;;;;1.00;1.00;;;;;15.38;46.13;98727.34;4792309;29;102402;-81
2021/05/08 05:00:47;;;;;;;;;0.00;0.00;;;;;15.37;45.96;98725.66;4790542;29;102718;-79
2021/05/08 05:03:14;;;;;;;;;1.00;1.00;;;;;15.37;45.77;98724.81;4783487;29;104123;-79
2021/05/08 05:05:41;;;;;;;;;2.00;1.00;;;;;15.37;45.70;98719.38;4786287;29;102246;-79
2021/05/08 05:08:07;;;;;;;;;1.00;1.00;;;;;15.29;46.29;98711.53;4789656;29;103256;-79
2021/05/08 05:10:34;;;;;;;;;0.75;0.75;;;;;15.38;45.83;98723.78;4785422;29;102666;-79
2021/05/08 05:13:01;;;;;;;;;0.00;0.00;;;;;15.37;45.48;98722.94;4781769;29;104106;-79
2021/05/08 05:15:27;;;;;;;;;2.00;1.00;;;;;15.37;45.99;98722.09;4783052;29;102523;-79
2021/05/08 05:17:55;;;;;;;;;2.00;1.00;;;;;15.37;46.61;98724.81;4782800;29;102727;-79
2021/05/08 05:20:21;;;;;;;;;1.25;1.00;;;;;15.37;45.94;98731.09;4786399;29;103848;-79
2021/05/08 05:22:49;;;;;;;;;2.00;1.00;;;;;15.37;45.89;98730.28;4785155;29;104255;-79
2021/05/08 05:25:16;;;;;;;;;0.00;0.00;;;;;15.37;45.42;98736.56;4786759;29;102327;-79
2021/05/08 05:27:42;;;;;;;;;1.00;1.00;;;;;15.38;45.77;98737.41;4785351;29;104149;-79
2021/05/08 05:30:09;;;;;;;;;1.50;1.50;;;;;15.39;45.63;98742.63;4794608;29;102372;-79
2021/05/08 05:32:36;;;;;;;;;3.00;1.00;;;;;15.40;45.45;98746.19;4785411;29;104065;-79
2021/05/08 05:35:04;;;;;;;;;0.00;0.00;;;;;15.40;45.49;98749.72;4784364;29;102534;-79
2021/05/08 05:37:30;;;;;;;;;1.00;1.00;;;;;15.41;45.51;98745.94;4780974;29;104956;-79
2021/05/08 05:39:57;;;;;;;;;1.00;1.00;;;;;15.42;45.60;98749.50;4789923;29;103723;-79
2021/05/08 05:42:24;;;;;;;;;1.00;1.00;;;;;15.42;45.89;98744.06;4786227;29;104175;-79
2021/05/08 05:44:51;;;;;;;;;0.00;0.00;;;;;15.43;45.59;98752.00;4791729;29;102195;-79
2021/05/08 05:47:21;;;;;;;;;0.50;0.50;;;;;15.44;45.49;98759.13;4787929;29;102409;-78
2021/05/08 05:49:50;;;;;;;;;0.25;0.25;;;;;15.42;45.38;98752.22;4788648;29;103491;-79
2021/05/08 05:52:18;;;;;;;;;1.50;1.00;;;;;15.45;45.20;98757.22;4787584;29;104016;-79
2021/05/08 05:54:45;;;;;;;;;1.00;1.00;;;;;15.44;45.51;98766.47;4791378;29;102474;-79
2021/05/08 05:57:12;;;;;;;;;1.00;0.50;;;;;15.45;45.47;98773.56;4786514;29;102308;-79
2021/05/08 05:59:38;;;;;;;;;2.00;1.50;;;;;15.45;45.42;98771.66;4794163;29;103984;-79
2021/05/08 06:02:05;;;;;;;;;1.00;0.00;;;;;15.46;45.49;98765.16;4789782;29;104102;-79
2021/05/08 06:04:34;;;;;;;;;0.00;0.00;;;;;15.48;45.57;98775.84;4787810;29;102362;-79
2021/05/08 06:07:04;;;;;;;;;1.00;0.25;;;;;15.47;45.31;98774.19;4788553;29;103038;-79
2021/05/08 06:09:31;;;;;;;;;0.25;0.00;;;;;15.46;45.20;98770.63;4790980;29;102694;-79
2021/05/08 06:11:58;;;;;;;;;1.75;1.00;;;;;15.47;45.33;98768.72;4785769;29;104116;-79
2021/05/08 06:14:28;;;;;;;;;0.33;0.33;;;;;15.48;45.52;98762.22;4783837;29;102219;-78
2021/05/08 06:16:56;;;;;;;;;0.50;0.00;;;;;15.47;45.39;98766.00;4795252;29;103359;-79
2021/05/08 06:19:24;;;;;;;;;1.00;1.00;;;;;15.49;45.20;98769.34;4784670;29;103438;-79
2021/05/08 06:21:51;;;;;;;;;1.75;1.00;;;;;15.50;45.02;98770.97;4787461;29;104287;-79
2021/05/08 06:24:18;;;;;;;;;1.00;1.00;;;;;15.49;45.75;98772.88;4790516;29;102578;-79
2021/05/08 06:26:44;;;;;;;;;1.00;0.50;;;;;15.49;45.01;98767.41;4792807;29;102191;-79
2021/05/08 06:29:11;;;;;;;;;1.00;1.00;;;;;15.49;45.51;98772.88;4784225;29;104018;-79
2021/05/08 06:31:38;;;;;;;;;1.00;0.00;;;;;15.50;45.17;98768.25;4787076;29;103853;-78
2021/05/08 06:34:41;;;;;;;;;1.75;1.00;;;;;15.49;45.00;98775.59;4790641;29;102116;-79
2021/05/08 06:37:42;;;;;;;;;0.00;0.00;;;;;15.50;45.20;98784.59;4732755;29;102304;-78
2021/05/08 06:40:24;;;;;;;;;1.25;1.00;;;;;15.51;45.37;98776.25;4708279;29;102612;-79
2021/05/08 06:42:53;;;;;;;;;1.00;1.00;;;;;15.51;45.33;98773.53;4781411;29;108757;-79
2021/05/08 06:45:36;;;;;;;;;0.75;0.75;;;;;15.52;45.32;98771.63;4788097;29;103875;-79
2021/05/08 06:51:43;;;;;;;;;0.00;0.00;;;;;15.53;45.27;98781.47;4727148;29;102443;-79
2021/05/08 06:54:09;;;;;;;;;0.00;0.00;;;;;15.52;45.04;98780.66;4784276;29;104082;-79
2021/05/08 06:56:36;;;;;;;;;1.00;0.25;;;;;15.52;45.54;98783.38;4789301;29;103668;-79
2021/05/08 07:02:50;;;;;;;;;0.25;0.25;;;;;15.53;45.47;98789.66;4727534;29;102583;-79
2021/05/08 07:05:17;;;;;;;;;1.00;1.00;;;;;15.54;45.29;98788.56;4786288;29;104064;-79
2021/05/08 07:07:43;;;;;;;;;1.50;1.25;;;;;15.54;45.53;98796.75;4787620;29;102019;-79
2021/05/08 07:10:10;;;;;;;;;0.00;0.00;;;;;15.53;45.48;98792.38;4788382;29;102499;-79
2021/05/08 07:12:38;;;;;;;;;0.25;0.25;;;;;15.53;45.24;98793.22;4784811;29;103803;-79
2021/05/08 07:15:06;;;;;;;;;0.00;0.00;;;;;15.54;45.54;98788.56;4787441;29;104311;-79
2021/05/08 07:17:33;;;;;;;;;0.00;0.00;;;;;15.54;45.55;98783.13;4788354;29;102487;-79
2021/05/08 07:20:00;;;;;;;;;0.00;0.00;;;;;15.54;45.54;98785.84;4780264;29;103894;-79
2021/05/08 07:22:27;;;;;;;;;0.00;0.00;;;;;15.56;45.16;98789.19;4788404;29;102559;-79
2021/05/08 07:24:55;;;;;;;;;1.00;1.00;;;;;15.55;45.26;98784.78;4789772;29;104127;-79
2021/05/08 07:27:22;;;;;;;;;0.00;0.00;;;;;15.55;45.27;98776.63;4784000;29;103290;-79
2021/05/08 07:29:49;;;;;;;;;0.00;0.00;;;;;15.55;45.55;98780.19;4789717;29;102414;-80
2021/05/08 07:32:16;;;;;;;;;0.50;0.25;;;;;15.55;45.17;98787.53;4791800;29;102491;-79
2021/05/08 07:34:43;;;;;;;;;1.00;1.00;;;;;15.55;45.13;98792.97;4765101;29;105332;-79
2021/05/08 07:37:10;;;;;;;;;1.00;1.00;;;;;15.55;45.23;98793.81;4779137;29;104042;-79
2021/05/08 07:39:37;;;;;;;;;0.00;0.00;;;;;15.54;45.27;98785.84;4778303;29;103301;-79
2021/05/08 07:42:05;;;;;;;;;0.75;0.00;;;;;15.55;45.31;98792.97;4779021;29;102186;-79
2021/05/08 07:44:31;;;;;;;;;0.00;0.00;;;;;15.55;45.16;98780.19;4776293;29;104266;-79
2021/05/08 07:46:59;;;;;;;;;0.00;0.00;;;;;15.55;45.54;98776.63;4789394;29;106114;-79
2021/05/08 07:49:27;;;;;;;;;0.00;0.00;;;;;15.55;45.36;98780.19;4784767;29;102343;-79
2021/05/08 07:51:54;;;;;;;;;0.00;0.00;;;;;15.57;45.42;98782.69;4784947;29;102534;-79
2021/05/08 07:54:21;;;;;;;;;0.25;0.25;;;;;15.57;45.04;98785.41;4783363;29;104461;-79
2021/05/08 07:56:48;;;;;;;;;1.00;0.00;;;;;15.49;45.19;98769.34;4784886;29;103546;-79
2021/05/08 07:59:15;;;;;;;;;0.00;0.00;;;;;15.57;45.19;98788.13;4783860;29;104186;-79
2021/05/08 08:01:41;;;;;;;;;1.00;0.25;;;;;15.57;45.08;98788.97;4784518;29;103554;-79
2021/05/08 08:04:09;;;;;;;;;0.00;0.00;;;;;15.58;45.40;98787.06;4781706;29;105938;-78
2021/05/08 08:06:36;;;;;;;;;1.00;0.00;;;;;15.57;45.43;98793.59;4778633;29;102134;-79
2021/05/08 08:09:06;;;;;;;;;0.25;0.25;;;;;15.58;45.42;98798.78;4780152;29;102097;-79
2021/05/08 08:11:32;;;;;;;;;1.00;1.00;;;;;15.58;45.23;98809.69;4782396;29;102386;-79
2021/05/08 08:13:59;;;;;;;;;0.00;0.00;;;;;15.58;45.23;98814.31;4788721;29;106541;-79
2021/05/08 08:16:26;;;;;;;;;0.25;0.25;;;;;15.58;45.23;98811.59;4781105;29;103547;-79
2021/05/08 08:18:52;;;;;;;;;0.25;0.00;;;;;15.55;45.44;98809.31;4786483;29;102476;-79
2021/05/08 08:21:19;;;;;;;;;0.00;0.00;;;;;15.58;45.48;98828.78;4790050;29;102449;-79
2021/05/08 08:23:46;;;;;;;;;0.00;0.00;;;;;15.53;45.15;98808.75;4797291;29;103244;-79
2021/05/08 08:26:13;;;;;;;;;0.00;0.00;;;;;15.59;45.20;98816.81;4793399;29;102523;-79
2021/05/08 08:28:39;;;;;;;;;0.00;0.00;;;;;15.60;45.46;98820.38;4790302;29;102339;-79
2021/05/08 08:31:06;;;;;;;;;0.00;0.00;;;;;15.60;45.00;98815.75;4795341;29;102591;-79
2021/05/08 08:33:33;;;;;;;;;1.00;0.00;;;;;15.60;45.32;98820.38;4791540;29;104048;-79
2021/05/08 08:36:01;;;;;;;;;0.00;0.00;;;;;15.60;45.03;98817.66;4782225;29;102717;-79
2021/05/08 08:38:31;;;;;;;;;0.25;0.25;;;;;15.61;45.08;98813.88;4790519;29;103054;-79
2021/05/08 08:41:22;;;;;;;;;0.00;0.00;;;;;15.62;45.18;98818.28;4785857;29;105511;-79
2021/05/08 08:43:59;;;;;;;;;0.00;0.00;;;;;15.62;45.09;98816.34;4682075;29;107967;-79
2021/05/08 08:46:46;;;;;;;;;0.00;0.00;;;;;15.63;45.20;98811.75;4787099;29;102678;-79
2021/05/08 08:49:22;;;;;;;;;0.00;0.00;;;;;15.63;44.85;98798.09;4783528;29;103547;-79
2021/05/08 08:51:53;;;;;;;;;0.00;0.00;;;;;15.65;44.89;98804.19;4789488;29;102449;-79
2021/05/08 08:54:21;;;;;;;;;0.25;0.25;;;;;15.66;45.06;98808.56;4785609;29;103252;-79
2021/05/08 08:56:47;;;;;;;;;0.00;0.00;;;;;15.65;45.00;98806.91;4790616;29;102470;-79
2021/05/08 09:01:52;;;;;;;;;0.00;0.00;;;;;15.64;45.00;98807.97;4786324;29;102253;-79
2021/05/08 09:04:19;;;;;;;;;1.00;1.00;;;;;15.66;45.00;98813.19;4789371;29;104186;-79
2021/05/08 09:06:47;;;;;;;;;0.00;0.00;;;;;15.66;45.08;98816.75;4782968;29;103350;-79
2021/05/08 09:09:15;;;;;;;;;1.00;0.25;;;;;15.67;44.67;98814.88;4782665;29;102376;-79
2021/05/08 09:11:50;;;;;;;;;0.00;0.00;;;;;15.64;44.99;98802.50;4789133;29;102654;-79
2021/05/08 09:14:26;;;;;;;;;0.50;0.50;;;;;15.68;44.88;98816.50;4787484;29;109021;-79
2021/05/08 09:17:14;;;;;;;;;0.50;0.50;;;;;15.68;45.43;98820.06;4781856;29;102598;-79
2021/05/08 09:19:45;;;;;;;;;1.00;0.00;;;;;15.69;44.78;98820.91;4784971;29;102495;-79
2021/05/08 09:22:30;;;;;;;;;0.00;0.00;;;;;15.69;44.90;98816.28;4791624;29;104249;-79
2021/05/08 09:25:19;;;;;;;;;1.00;1.00;;;;;15.68;44.83;98811.88;4718169;29;108857;-79
2021/05/08 09:27:52;;;;;;;;;1.00;1.00;;;;;15.71;44.89;98818.78;4782943;29;102146;-79
2021/05/08 09:30:24;;;;;;;;;0.25;0.00;;;;;15.69;44.90;98816.28;4784873;29;102649;-79
2021/05/08 09:32:55;;;;;;;;;0.00;0.00;;;;;15.70;44.75;98828.03;4789276;29;102602;-79
2021/05/08 09:35:30;;;;;;;;;0.00;0.00;;;;;15.69;44.96;98823.63;4784930;29;104140;-79
2021/05/08 09:38:11;;;;;;;;;0.00;0.00;;;;;15.68;44.78;98839.16;4786801;29;102554;-79
2021/05/08 09:40:44;;;;;;;;;0.00;0.00;;;;;15.69;44.88;98837.25;4788815;29;102158;-79
2021/05/08 09:43:12;;;;;;;;;1.00;0.00;;;;;15.68;44.68;98836.41;4783789;29;103534;-79
2021/05/08 09:45:41;;;;;;;;;2.00;0.50;;;;;15.68;44.97;98828.25;4787662;29;105218;-79
2021/05/08 09:48:18;;;;;;;;;0.00;0.00;;;;;15.68;44.90;98825.53;4795198;29;102773;-79
2021/05/08 09:51:25;;;;;;;;;1.00;1.00;;;;;15.68;44.90;98833.69;4735250;29;102435;-79
2021/05/08 09:53:55;;;;;;;;;0.00;0.00;;;;;15.68;45.00;98824.69;4716990;29;102766;-79
2021/05/08 09:56:39;;;;;;;;;0.00;0.00;;;;;15.67;44.98;98834.75;4787247;29;104064;-79
2021/05/08 09:59:32;;;;;;;;;0.25;0.00;;;;;15.69;45.41;98832.63;4791785;29;103715;-78
2021/05/08 10:02:02;;;;;;;;;0.25;0.00;;;;;15.71;44.84;98835.16;4728296;29;102494;-79
2021/05/08 10:04:30;;;;;;;;;0.00;0.00;;;;;15.71;44.81;98830.53;4788511;29;102475;-79
2021/05/08 10:07:09;;;;;;;;;0.00;0.00;;;;;15.72;44.99;98821.28;4786109;29;104058;-79
2021/05/08 10:09:37;;;;;;;;;0.00;0.00;;;;;15.72;44.84;98820.44;4792390;29;102163;-79
2021/05/08 10:12:11;;;;;;;;;0.67;0.67;;;;;15.73;44.93;98820.22;4785946;29;102485;-79
2021/05/08 10:14:43;;;;;;;;;0.00;0.00;;;;;15.74;45.20;98821.88;4789243;29;102385;-79
2021/05/08 10:17:25;;;;;;;;;0.00;0.00;;;;;15.76;45.21;98808.03;4787524;29;108602;-79
2021/05/08 10:20:05;;;;;;;;;0.00;0.00;;;;;15.75;45.15;98801.75;4782642;29;103539;-79
2021/05/08 10:22:53;;;;;;;;;0.00;0.00;;;;;15.76;44.96;98799.84;4776745;29;102739;-79
2021/05/08 10:25:20;;;;;;;;;1.00;0.00;;;;;15.75;44.75;98801.75;4786779;29;102581;-79
2021/05/08 10:27:48;;;;;;;;;0.00;0.00;;;;;15.71;45.04;98789.63;4781287;29;107986;-79
2021/05/08 10:30:19;;;;;;;;;0.00;0.00;;;;;15.75;45.07;98795.47;4784366;29;102487;-79
2021/05/08 10:32:48;;;;;;;;;0.00;0.00;;;;;15.76;45.03;98794.41;4749882;29;102474;-79
2021/05/08 10:35:15;;;;;;;;;0.00;0.00;;;;;15.75;44.96;98799.03;4788747;29;102626;-79
2021/05/08 10:38:13;;;;;;;;;0.00;0.00;;;;;15.78;45.10;98798.56;4791415;29;104326;-79
2021/05/08 10:40:59;;;;;;;;;0.00;0.00;;;;;15.76;44.72;98794.41;4723099;29;102581;-79
2021/05/08 10:43:47;;;;;;;;;0.75;0.75;;;;;15.73;44.53;98790.22;4722527;29;102719;-79
2021/05/08 10:46:15;;;;;;;;;0.00;0.00;;;;;15.78;45.00;98801.28;4784253;29;102538;-79
2021/05/08 10:49:09;;;;;;;;;1.00;0.00;;;;;15.80;44.75;98801.91;4780740;29;104149;-79
2021/05/08 10:51:58;;;;;;;;;0.33;0.33;;;;;15.80;44.86;98812.81;4728321;29;102993;-79
2021/05/08 10:54:44;;;;;;;;;0.00;0.00;;;;;15.80;44.92;98804.63;4692019;29;106946;-79
2021/05/08 10:57:14;;;;;;;;;0.00;0.00;;;;;15.82;44.70;98816.13;4783126;29;104133;-79
2021/05/08 11:00:03;;;;;;;;;0.00;0.00;;;;;15.83;44.80;98801.44;4770001;29;103836;-79
2021/05/08 11:02:42;;;;;;;;;0.00;0.00;;;;;15.83;44.96;98806.88;4679343;29;102388;-79
2021/05/08 11:05:29;;;;;;;;;1.00;0.00;;;;;15.84;44.84;98805.81;4786824;29;103759;-79
2021/05/08 11:07:56;;;;;;;;;0.00;0.00;;;;;15.85;44.81;98812.13;4737607;29;102597;-79
2021/05/08 11:10:34;;;;;;;;;0.00;0.00;;;;;15.83;44.88;98812.34;4760663;29;104086;-79
2021/05/08 11:13:17;;;;;;;;;0.00;0.00;;;;;15.81;44.89;98806.25;4778999;29;102421;-79
2021/05/08 11:18:41;;;;;;;;;0.00;0.00;;;;;15.81;44.52;98798.09;4776561;29;103435;-79
2021/05/08 11:21:08;;;;;;;;;0.75;0.75;;;;;15.80;44.72;98801.91;4785469;29;104123;-79
2021/05/08 11:23:45;;;;;;;;;0.00;0.00;;;;;15.80;44.77;98796.44;4785848;29;103044;-79
2021/05/08 11:26:30;;;;;;;;;0.00;0.00;;;;;15.82;44.86;98804.38;4786290;29;102524;-79
2021/05/08 11:29:04;;;;;;;;;0.00;0.00;;;;;15.81;45.04;98809.00;4702217;29;107834;-79
2021/05/08 11:31:41;;;;;;;;;0.00;0.00;;;;;15.84;44.80;98811.28;4788842;29;104121;-79
2021/05/08 11:34:13;;;;;;;;;0.00;0.00;;;;;15.85;44.57;98803.94;4788134;29;102273;-79
2021/05/08 11:37:02;;;;;;;;;0.00;0.00;;;;;15.84;45.01;98808.56;4788237;29;103514;-79
2021/05/08 11:39:30;;;;;;;;;0.00;0.00;;;;;15.84;44.79;98803.09;4727167;29;102439;-80
2021/05/08 11:42:12;;;;;;;;;0.00;0.00;;;;;15.85;44.33;98795.75;4770798;29;105096;-79
2021/05/08 11:44:53;;;;;;;;;0.50;0.00;;;;;15.86;45.04;98797.41;4782492;29;102704;-79
2021/05/08 11:47:28;;;;;;;;;0.67;0.67;;;;;15.85;44.75;98793.84;4767279;29;102415;-79
2021/05/08 11:50:07;;;;;;;;;0.00;0.00;;;;;15.85;44.80;98785.66;4746375;29;102683;-78